Glencoe, KY

7:39 PM EST on February 27, 2015 (GMT -0500)
Cincinnati Municipal-Lunken | Change Station
CLOSE
Current Station
Airport
Location: Cincinnati,
Elevation: 482 ft
Nearby Weather Stations

Elev 482 ft 39.10 °N, 84.42 °W | Updated 46 minutes ago

Clear
Clear
17 °F
Feels Like 10 °F
N
5
Wind Variable Wind from ENE

Today
High -- | Low -- °F
--% Chance of Precip.
Yesterday
High -- | Low -- °F
Precip. -- in
7:14 AM 6:29 PM
Waxing Gibbous, 73% visible
Pressure 30.67 in
Visibility 10.0 miles
Clouds Clear
Windchill 10 °F
Dew Point 2 °F
Humidity 52%
Rainfall 0.00 in
Snow Depth Not available.
UV 0 out of 12
Pollen .60 out of 12
Air Quality Not available.
Flu Activity Not available.
METAR KLUK 272353Z 06004KT 10SM CLR M08/M17 A3064 RMK AO2 SLP384 60000 T10831167 11050 21083 53006

More Conditions Fewer Conditions

Pressure 30.67 in
Visibility 10.0 miles
Clouds Clear
Windchill 10 °F
Dew Point 2 °F
Humidity 52%
Rainfall 0.00 in
Snow Depth Not available.
UV 0 out of 12
Pollen .60 out of 12
Air Quality Not available.
Flu Activity Not available.
METAR KLUK 272353Z 06004KT 10SM CLR M08/M17 A3064 RMK AO2 SLP384 60000 T10831167 11050 21083 53006

More Conditions Fewer Conditions

10-Day Weather Forecast

Almanac

Astronomy

Feb. 27, 2015 Rise Set
Actual Time
Civil Twilight
Nautical Twilight
Astronomical Twilight
Moon
Length of Visible Light
Length of Day
Tomorrow will be .
, % of the Moon is Illuminated

Today's Extremes

State Highs State Lows

Community

WunderPhotos

Upload Photos

1,800,904 photos uploaded!

WunderBlogs® & News

Nearby

Air Quality

  Air Quality AQ Index Pollutant
Not available.

Snow Depth

Station Depth Elevation

Earthquake Activity

City Distance Mag. Time & Date
Minimum magnitude displayed is 2.5.

Coastal Water Temperatures

Place Temperature

Nearby Weather Stations